Time;durP1;ratioP1;P1;durP2;ratioP2;P2;SDS_P1;SDS_P2;PMS_P1;PMS_P2;Temp;Humidity;BMP_temperature;BMP_pressure;BME280_temperature;BME280_humidity;BME280_pressure;Samples;Min_cycle;Max_cycle;Signal;HPM_P1;HPM_P2
2023/07/14 00:01:16;;;;;;;;;;;;;;;30.11;47.23;99281.31;5032133;28;19913;-77
2023/07/14 00:03:41;;;;;;;;;;;;;;;30.10;46.10;99285.97;5032127;28;20321;-77
2023/07/14 00:06:08;;;;;;;;;;;;;;;30.10;45.98;99285.16;5032129;28;19959;-76
2023/07/14 00:08:33;;;;;;;;;;;;;;;30.12;45.26;99288.38;5014343;28;19963;-78
2023/07/14 00:10:59;;;;;;;;;;;;;;;30.15;46.61;99287.75;5032063;28;19909;-78
2023/07/14 00:13:24;;;;;;;;;;;;;;;30.13;46.79;99293.50;5030595;28;20255;-77
2023/07/14 00:15:49;;;;;;;;;;;;;;;30.13;45.30;99301.66;5030629;28;19916;-76
2023/07/14 00:18:25;;;;;;;;;;;;;;;30.12;45.28;99304.72;5031920;28;19999;-77
2023/07/14 00:20:51;;;;;;;;;;;;;;;30.08;46.43;99301.00;5031828;28;20283;-76
2023/07/14 00:23:17;;;;;;;;;;;;;;;30.03;46.69;99305.47;5031722;28;19996;-76
2023/07/14 00:25:43;;;;;;;;;;;;;;;29.99;46.63;99293.56;5031580;28;19931;-78
2023/07/14 00:28:14;;;;;;;;;;;;;;;29.93;47.17;99291.28;5031696;28;20367;-75
2023/07/14 00:30:39;;;;;;;;;;;;;;;29.85;47.41;99284.69;5031754;28;19909;-77
2023/07/14 00:33:09;;;;;;;;;;;;;;;29.80;46.63;99286.72;5031791;28;19909;-78
2023/07/14 00:35:34;;;;;;;;;;;;;;;29.72;47.40;99285.53;5031640;28;19909;-79
2023/07/14 00:38:00;;;;;;;;;;;;;;;29.70;47.39;99272.22;5031534;28;20007;-76
2023/07/14 00:40:36;;;;;;;;;;;;;;;29.69;46.84;99276.06;5032112;28;19920;-76
2023/07/14 00:43:01;;;;;;;;;;;;;;;29.72;47.17;99269.19;5035786;28;19909;-78
2023/07/14 00:45:28;;;;;;;;;;;;;;;29.69;47.61;99257.03;5035922;28;19915;-78
2023/07/14 00:47:57;;;;;;;;;;;;;;;29.64;47.79;99259.88;5035655;28;19909;-77
2023/07/14 00:50:40;;;;;;;;;;;;;;;29.60;47.79;99250.72;5035605;28;19916;-77
2023/07/14 00:53:24;;;;;;;;;;;;;;;29.56;47.48;99252.47;5035495;28;19909;-77
2023/07/14 00:56:02;;;;;;;;;;;;;;;29.55;48.10;99241.88;5035564;28;20394;-76
2023/07/14 00:58:29;;;;;;;;;;;;;;;29.55;46.46;99241.88;5035353;28;19917;-78
2023/07/14 01:01:11;;;;;;;;;;;;;;;29.58;46.26;99241.25;5035386;28;19920;-78
2023/07/14 01:03:39;;;;;;;;;;;;;;;29.59;48.07;99232.00;5035515;28;19913;-76
2023/07/14 01:06:06;;;;;;;;;;;;;;;29.61;46.67;99241.44;5035334;28;19912;-78
2023/07/14 01:08:32;;;;;;;;;;;;;;;29.60;47.45;99250.72;5035194;28;19963;-79
2023/07/14 01:10:58;;;;;;;;;;;;;;;29.51;47.09;99252.59;5035090;28;19913;-76
2023/07/14 01:13:24;;;;;;;;;;;;;;;29.38;47.81;99248.78;5017166;28;19966;-79
2023/07/14 01:15:50;;;;;;;;;;;;;;;29.28;48.32;99251.75;5017267;28;19906;-76
2023/07/14 01:18:15;;;;;;;;;;;;;;;29.19;47.02;99250.06;5035149;28;19916;-78
2023/07/14 01:20:41;;;;;;;;;;;;;;;29.15;47.58;99243.66;5033734;28;19908;-79
2023/07/14 01:23:07;;;;;;;;;;;;;;;29.06;48.63;99240.88;5034839;28;19909;-78
2023/07/14 01:25:35;;;;;;;;;;;;;;;29.00;48.16;99242.91;5017080;28;19913;-77
2023/07/14 01:28:03;;;;;;;;;;;;;;;28.90;49.06;99245.00;5034911;28;19909;-77
2023/07/14 01:30:29;;;;;;;;;;;;;;;28.85;48.60;99243.22;5034867;28;19905;-77
2023/07/14 01:32:54;;;;;;;;;;;;;;;28.79;49.26;99242.47;5035085;28;19932;-78
2023/07/14 01:35:24;;;;;;;;;;;;;;;28.76;47.65;99242.28;5034842;28;19913;-78
2023/07/14 01:37:49;;;;;;;;;;;;;;;28.64;49.39;99240.09;5034440;28;19912;-76
2023/07/14 01:40:17;;;;;;;;;;;;;;;28.50;47.50;99249.38;5034475;28;19909;-76
2023/07/14 01:42:45;;;;;;;;;;;;;;;28.34;49.32;99238.81;5016851;28;20337;-77
2023/07/14 01:45:17;;;;;;;;;;;;;;;28.26;48.43;99239.53;5016846;28;19909;-77
2023/07/14 01:47:44;;;;;;;;;;;;;;;28.30;49.86;99231.59;5034874;28;20374;-76
2023/07/14 01:50:42;;;;;;;;;;;;;;;28.23;50.95;99234.69;5016844;28;19908;-77
2023/07/14 01:53:21;;;;;;;;;;;;;;;28.14;50.27;99236.44;4990105;28;19952;-76
2023/07/14 01:55:47;;;;;;;;;;;;;;;28.08;50.09;99243.88;5034655;28;19909;-78
2023/07/14 01:58:19;;;;;;;;;;;;;;;28.02;49.79;99242.38;5034271;28;20286;-78
2023/07/14 02:00:46;;;;;;;;;;;;;;;27.93;50.77;99243.38;5034199;28;19909;-78
2023/07/14 02:03:13;;;;;;;;;;;;;;;27.87;49.85;99244.56;5034357;28;19909;-78
2023/07/14 02:05:39;;;;;;;;;;;;;;;27.81;50.97;99252.78;5034352;28;19909;-78
2023/07/14 02:08:05;;;;;;;;;;;;;;;27.76;51.76;99260.22;5033911;28;19909;-76
2023/07/14 02:10:31;;;;;;;;;;;;;;;27.70;52.69;99261.41;5016129;28;19998;-77
2023/07/14 02:12:57;;;;;;;;;;;;;;;27.69;50.60;99255.19;5034038;28;19912;-76
2023/07/14 02:15:31;;;;;;;;;;;;;;;27.64;50.16;99263.41;5033869;28;19905;-76
2023/07/14 02:17:57;;;;;;;;;;;;;;;27.54;52.57;99252.69;5034387;28;19915;-77
2023/07/14 02:20:25;;;;;;;;;;;;;;;27.46;52.10;99247.91;5034494;28;19909;-76
2023/07/14 02:22:52;;;;;;;;;;;;;;;27.44;50.79;99242.78;5016164;28;20465;-78
2023/07/14 02:25:18;;;;;;;;;;;;;;;27.41;52.17;99248.81;5034150;28;19909;-76
2023/07/14 02:27:44;;;;;;;;;;;;;;;27.40;50.76;99254.53;5034291;28;19909;-77
2023/07/14 02:30:12;;;;;;;;;;;;;;;27.37;51.03;99255.94;5033967;28;19909;-77
2023/07/14 02:32:40;;;;;;;;;;;;;;;27.34;51.69;99259.22;5015945;28;19909;-77
2023/07/14 02:35:30;;;;;;;;;;;;;;;27.38;50.91;99257.53;5033716;28;19916;-78
2023/07/14 02:40:36;;;;;;;;;;;;;;;27.43;51.58;99253.94;5033730;28;20402;-78
2023/07/14 02:43:03;;;;;;;;;;;;;;;27.37;51.94;99247.78;5033529;28;20402;-78
2023/07/14 02:45:29;;;;;;;;;;;;;;;27.40;51.17;99243.69;5033603;28;19962;-77
2023/07/14 02:47:56;;;;;;;;;;;;;;;27.44;50.42;99240.09;5015873;28;20385;-77
2023/07/14 02:50:22;;;;;;;;;;;;;;;27.44;51.92;99236.56;5033508;28;19910;-77
2023/07/14 02:52:47;;;;;;;;;;;;;;;27.42;51.27;99233.34;5033601;28;20436;-78
2023/07/14 02:55:13;;;;;;;;;;;;;;;27.43;50.82;99224.09;5034017;28;19916;-77
2023/07/14 02:57:38;;;;;;;;;;;;;;;27.42;50.21;99225.22;5033151;28;19917;-78
2023/07/14 03:00:07;;;;;;;;;;;;;;;27.45;51.44;99220.00;5032033;28;20389;-77
2023/07/14 03:02:32;;;;;;;;;;;;;;;27.46;51.25;99224.31;5031768;28;19913;-78
2023/07/14 03:04:58;;;;;;;;;;;;;;;27.46;50.39;99220.81;5032475;28;19909;-77
2023/07/14 03:07:23;;;;;;;;;;;;;;;27.44;49.75;99231.16;5033043;28;19962;-78
2023/07/14 03:09:48;;;;;;;;;;;;;;;27.42;50.89;99233.34;5033253;28;20302;-78
2023/07/14 03:12:13;;;;;;;;;;;;;;;27.41;50.00;99231.75;5031869;28;19908;-78
2023/07/14 03:14:39;;;;;;;;;;;;;;;27.35;50.24;99232.91;5033182;28;19983;-78
2023/07/14 03:17:04;;;;;;;;;;;;;;;27.30;49.88;99241.94;5033170;28;19908;-77
2023/07/14 03:19:29;;;;;;;;;;;;;;;27.30;50.21;99233.00;5033411;28;19909;-75
2023/07/14 03:21:54;;;;;;;;;;;;;;;27.29;50.71;99247.66;5033330;28;20392;-78
2023/07/14 03:24:20;;;;;;;;;;;;;;;27.33;50.23;99254.91;5033130;28;20390;-79
2023/07/14 03:26:45;;;;;;;;;;;;;;;27.34;50.04;99253.81;5033169;28;19916;-79
2023/07/14 03:29:10;;;;;;;;;;;;;;;27.34;50.06;99258.41;5032756;28;19963;-77
2023/07/14 03:31:35;;;;;;;;;;;;;;;27.34;49.52;99263.84;5032928;28;19916;-77
2023/07/14 03:34:01;;;;;;;;;;;;;;;27.33;50.81;99281.22;5031297;28;20312;-78
2023/07/14 03:36:26;;;;;;;;;;;;;;;27.36;50.09;99273.28;5032764;28;19909;-78
2023/07/14 03:39:10;;;;;;;;;;;;;;;27.34;49.52;99286.34;5032622;28;19909;-79
2023/07/14 03:41:35;;;;;;;;;;;;;;;27.35;51.15;99287.13;5032539;28;19913;-78
2023/07/14 03:44:01;;;;;;;;;;;;;;;27.32;49.28;99290.44;5032567;28;20310;-78
2023/07/14 03:46:26;;;;;;;;;;;;;;;27.25;50.73;99290.00;5032468;28;19909;-77
2023/07/14 03:48:51;;;;;;;;;;;;;;;27.23;50.33;99298.44;5032291;28;19909;-78
2023/07/14 03:51:17;;;;;;;;;;;;;;;27.26;50.42;99295.13;5032230;28;20027;-77
2023/07/14 03:53:42;;;;;;;;;;;;;;;27.26;49.08;99291.63;5030920;28;19916;-77
2023/07/14 03:56:07;;;;;;;;;;;;;;;27.27;49.42;99291.31;5032130;28;20334;-78
2023/07/14 03:58:32;;;;;;;;;;;;;;;27.28;49.75;99294.84;5031901;28;19916;-77
2023/07/14 04:01:00;;;;;;;;;;;;;;;27.27;49.44;99307.59;5031896;28;20325;-77
2023/07/14 04:03:25;;;;;;;;;;;;;;;27.26;49.57;99321.44;5032057;28;19932;-77
2023/07/14 04:05:50;;;;;;;;;;;;;;;27.22;50.71;99326.63;5032009;28;19909;-77
2023/07/14 04:08:16;;;;;;;;;;;;;;;27.22;49.90;99343.72;5031761;28;19916;-77
2023/07/14 04:10:42;;;;;;;;;;;;;;;27.27;49.76;99336.59;5031866;28;19909;-78
2023/07/14 04:13:08;;;;;;;;;;;;;;;27.25;50.64;99339.59;5032053;28;19909;-79
2023/07/14 04:15:33;;;;;;;;;;;;;;;27.25;49.85;99342.31;5031484;28;19909;-78
2023/07/14 04:17:58;;;;;;;;;;;;;;;27.23;49.68;99352.66;5033684;28;19916;-79
2023/07/14 04:20:23;;;;;;;;;;;;;;;27.23;49.48;99372.44;5034650;28;19917;-78
2023/07/14 04:22:49;;;;;;;;;;;;;;;27.25;49.98;99382.97;5032481;28;19913;-77
2023/07/14 04:25:14;;;;;;;;;;;;;;;27.30;49.62;99382.09;5032144;28;19996;-77
2023/07/14 04:27:39;;;;;;;;;;;;;;;27.40;49.00;99385.47;5032008;28;19913;-77
2023/07/14 04:30:23;;;;;;;;;;;;;;;27.42;49.54;99393.31;5031792;28;20011;-77
2023/07/14 04:32:50;;;;;;;;;;;;;;;27.44;49.59;99407.41;5031940;28;19987;-77
2023/07/14 04:35:15;;;;;;;;;;;;;;;27.51;49.24;99392.41;5032100;28;20409;-77
2023/07/14 04:37:40;;;;;;;;;;;;;;;27.58;49.27;99407.50;5031735;28;19909;-77
2023/07/14 04:40:06;;;;;;;;;;;;;;;27.65;48.59;99407.97;5015340;28;19919;-78
2023/07/14 04:42:32;;;;;;;;;;;;;;;27.69;49.00;99392.72;5032730;28;19999;-77
2023/07/14 04:44:57;;;;;;;;;;;;;;;27.78;49.42;99401.81;5014004;28;19992;-78
2023/07/14 04:47:22;;;;;;;;;;;;;;;27.79;49.12;99409.66;5031503;28;19967;-77
2023/07/14 04:49:47;;;;;;;;;;;;;;;27.82;49.27;99414.50;5031438;28;20404;-77
2023/07/14 04:52:13;;;;;;;;;;;;;;;27.88;48.33;99417.94;5031571;28;19909;-77
2023/07/14 04:54:38;;;;;;;;;;;;;;;27.91;50.47;99413.81;5031356;28;19913;-77
2023/07/14 04:57:03;;;;;;;;;;;;;;;27.93;49.17;99409.72;5030157;28;19963;-77
2023/07/14 04:59:29;;;;;;;;;;;;;;;27.99;49.73;99405.81;5031312;28;20058;-77
2023/07/14 05:01:54;;;;;;;;;;;;;;;28.03;49.15;99404.13;5031306;28;19921;-77
2023/07/14 05:04:19;;;;;;;;;;;;;;;28.03;50.22;99403.31;5013623;28;19920;-78
2023/07/14 05:06:45;;;;;;;;;;;;;;;28.01;49.41;99402.81;5031571;28;19968;-77
2023/07/14 05:09:10;;;;;;;;;;;;;;;28.08;49.67;99405.94;5031331;28;19909;-77
2023/07/14 05:11:35;;;;;;;;;;;;;;;28.17;49.25;99406.88;5031371;28;19909;-77
2023/07/14 05:14:03;;;;;;;;;;;;;;;28.25;49.70;99406.25;5031678;28;19913;-77
2023/07/14 05:16:29;;;;;;;;;;;;;;;28.39;49.10;99400.84;5031329;28;19917;-79
2023/07/14 05:18:54;;;;;;;;;;;;;;;28.52;49.08;99408.22;5013623;28;19913;-77
2023/07/14 05:21:20;;;;;;;;;;;;;;;28.59;48.87;99418.69;5031085;28;20011;-77
2023/07/14 05:23:45;;;;;;;;;;;;;;;28.66;48.96;99419.09;5031215;28;19992;-77
2023/07/14 05:26:10;;;;;;;;;;;;;;;28.78;48.92;99416.69;5031353;28;19909;-76
2023/07/14 05:28:36;;;;;;;;;;;;;;;28.89;47.72;99409.19;5034720;28;19909;-78
2023/07/14 05:31:02;;;;;;;;;;;;;;;29.00;46.94;99413.34;5034534;28;19916;-77
2023/07/14 05:33:27;;;;;;;;;;;;;;;29.09;46.51;99419.69;5034658;28;19909;-77
2023/07/14 05:35:52;;;;;;;;;;;;;;;29.16;46.17;99419.28;5034647;28;19916;-78
2023/07/14 05:38:17;;;;;;;;;;;;;;;29.21;45.93;99414.53;5034756;28;19909;-75
2023/07/14 05:40:43;;;;;;;;;;;;;;;29.27;45.85;99416.03;5034512;28;20004;-76
2023/07/14 05:43:08;;;;;;;;;;;;;;;29.34;45.82;99404.75;5034759;28;20321;-76
2023/07/14 05:45:34;;;;;;;;;;;;;;;29.40;45.42;99406.25;5034734;28;19908;-77
2023/07/14 05:47:59;;;;;;;;;;;;;;;29.42;44.86;99406.75;5034685;28;19971;-77
2023/07/14 05:50:24;;;;;;;;;;;;;;;29.51;45.24;99413.09;5032770;28;19924;-77
2023/07/14 05:52:50;;;;;;;;;;;;;;;29.61;44.38;99404.69;5022616;28;19927;-77
2023/07/14 05:55:15;;;;;;;;;;;;;;;29.68;44.42;99407.00;5033795;28;19913;-78
2023/07/14 05:57:40;;;;;;;;;;;;;;;29.72;43.63;99410.72;5021666;28;19917;-78
2023/07/14 06:00:16;;;;;;;;;;;;;;;29.74;44.08;99411.25;5011927;28;19909;-77
2023/07/14 06:02:42;;;;;;;;;;;;;;;29.86;43.68;99399.81;5023412;28;20321;-76
2023/07/14 06:05:08;;;;;;;;;;;;;;;29.94;43.78;99407.22;5029334;28;19913;-76
2023/07/14 06:07:34;;;;;;;;;;;;;;;29.99;43.72;99415.28;5033254;28;20357;-78
2023/07/14 06:09:59;;;;;;;;;;;;;;;30.04;43.41;99407.00;5033078;28;19944;-78
2023/07/14 06:12:24;;;;;;;;;;;;;;;30.06;43.22;99410.22;5015980;28;19913;-78
2023/07/14 06:14:49;;;;;;;;;;;;;;;30.11;42.94;99410.09;5033287;28;19917;-76
2023/07/14 06:17:15;;;;;;;;;;;;;;;30.17;42.46;99408.88;5031668;28;20317;-77
2023/07/14 06:19:40;;;;;;;;;;;;;;;30.18;42.85;99412.38;5012898;28;21099;-78
2023/07/14 06:22:06;;;;;;;;;;;;;;;30.22;42.15;99410.66;5032403;28;20003;-78
2023/07/14 06:24:32;;;;;;;;;;;;;;;30.29;42.48;99402.84;5031457;28;19920;-76
2023/07/14 06:26:57;;;;;;;;;;;;;;;30.33;42.15;99418.25;5033170;28;20294;-76
2023/07/14 06:29:23;;;;;;;;;;;;;;;30.36;42.37;99406.72;5032404;28;19913;-78
2023/07/14 06:31:48;;;;;;;;;;;;;;;30.42;42.44;99409.31;5032323;28;19921;-76
2023/07/14 06:34:13;;;;;;;;;;;;;;;30.41;42.61;99411.25;5034041;28;19909;-76
2023/07/14 06:36:38;;;;;;;;;;;;;;;30.50;42.70;99419.50;5034342;28;19909;-78
2023/07/14 06:39:04;;;;;;;;;;;;;;;30.58;43.16;99416.81;5029979;28;19974;-77
2023/07/14 06:41:30;;;;;;;;;;;;;;;30.65;42.73;99422.66;5015546;28;20492;-76
2023/07/14 06:43:55;;;;;;;;;;;;;;;30.70;42.41;99423.63;5027944;28;19932;-76
2023/07/14 06:46:20;;;;;;;;;;;;;;;30.73;42.19;99423.00;5027449;28;19920;-77
2023/07/14 06:48:46;;;;;;;;;;;;;;;30.75;41.84;99420.75;5028724;28;19936;-76
2023/07/14 06:51:13;;;;;;;;;;;;;;;30.78;42.09;99418.22;5012145;28;19920;-78
2023/07/14 06:53:39;;;;;;;;;;;;;;;30.83;41.62;99422.72;5031371;28;19913;-76
2023/07/14 06:56:04;;;;;;;;;;;;;;;30.89;41.78;99425.00;5010755;28;20460;-75
2023/07/14 06:58:29;;;;;;;;;;;;;;;30.96;41.46;99427.25;5007873;28;19946;-77
2023/07/14 07:00:56;;;;;;;;;;;;;;;30.98;41.64;99422.28;5026272;28;19912;-76
2023/07/14 07:03:21;;;;;;;;;;;;;;;31.04;41.06;99428.41;5033132;28;19913;-76
2023/07/14 07:05:46;;;;;;;;;;;;;;;31.07;41.68;99428.56;5015415;28;19986;-76
2023/07/14 07:08:13;;;;;;;;;;;;;;;31.10;42.28;99422.47;5030420;28;20325;-78
2023/07/14 07:10:40;;;;;;;;;;;;;;;31.11;41.93;99429.56;5033158;28;19996;-76
2023/07/14 07:13:05;;;;;;;;;;;;;;;31.11;42.03;99434.19;5033365;28;19909;-77
2023/07/14 07:15:30;;;;;;;;;;;;;;;31.18;41.99;99431.84;5000155;28;19910;-78
2023/07/14 07:17:55;;;;;;;;;;;;;;;31.23;41.51;99442.63;5013547;28;19910;-77
2023/07/14 07:20:21;;;;;;;;;;;;;;;31.29;41.78;99442.16;5023804;28;19913;-76
2023/07/14 07:22:46;;;;;;;;;;;;;;;31.36;41.60;99441.69;5032920;28;19913;-76
2023/07/14 07:25:12;;;;;;;;;;;;;;;31.41;41.35;99444.28;5032793;28;19962;-77
2023/07/14 07:27:37;;;;;;;;;;;;;;;31.50;41.74;99442.38;5025854;28;19940;-78
2023/07/14 07:30:03;;;;;;;;;;;;;;;31.60;40.32;99450.25;5030773;28;19913;-77
2023/07/14 07:32:29;;;;;;;;;;;;;;;31.68;39.74;99447.84;5033345;28;19912;-77
2023/07/14 07:34:59;;;;;;;;;;;;;;;31.74;40.02;99455.59;5028987;28;19919;-78
2023/07/14 07:37:24;;;;;;;;;;;;;;;31.85;40.14;99458.81;5011657;28;19917;-76
2023/07/14 07:39:53;;;;;;;;;;;;;;;31.88;39.68;99456.22;5011890;28;20381;-78
2023/07/14 07:42:18;;;;;;;;;;;;;;;31.95;38.24;99457.69;5032126;28;19949;-77
2023/07/14 07:44:43;;;;;;;;;;;;;;;32.03;38.89;99465.09;5028413;28;19956;-77
2023/07/14 07:47:09;;;;;;;;;;;;;;;32.06;38.49;99454.31;5030129;28;19920;-77
2023/07/14 07:49:35;;;;;;;;;;;;;;;32.15;38.66;99446.94;5029287;28;19921;-77
2023/07/14 07:52:00;;;;;;;;;;;;;;;32.21;37.55;99453.03;5013252;28;19953;-76
2023/07/14 07:54:25;;;;;;;;;;;;;;;32.26;38.21;99446.63;5030282;28;19913;-77
2023/07/14 07:56:50;;;;;;;;;;;;;;;32.38;38.62;99454.97;5028074;28;19917;-76
2023/07/14 07:59:16;;;;;;;;;;;;;;;32.50;38.75;99455.09;5033747;28;19917;-76
2023/07/14 08:01:42;;;;;;;;;;;;;;;32.59;38.41;99444.94;5032995;28;19917;-76
2023/07/14 08:04:07;;;;;;;;;;;;;;;32.68;38.20;99451.16;5026080;28;19920;-80
2023/07/14 08:06:34;;;;;;;;;;;;;;;32.72;37.36;99445.88;5030510;28;19913;-78
2023/07/14 08:08:59;;;;;;;;;;;;;;;32.75;37.77;99453.44;5026333;28;19977;-78
2023/07/14 08:11:25;;;;;;;;;;;;;;;32.82;36.84;99442.81;5007792;28;19913;-77
2023/07/14 08:13:50;;;;;;;;;;;;;;;32.87;36.14;99445.38;5029736;28;19917;-78
2023/07/14 08:16:15;;;;;;;;;;;;;;;32.89;36.43;99443.09;5026733;28;19920;-78
2023/07/14 08:18:40;;;;;;;;;;;;;;;32.96;36.42;99448.06;5028634;28;19937;-76
2023/07/14 08:21:06;;;;;;;;;;;;;;;33.01;35.93;99437.75;5007803;28;19917;-77
2023/07/14 08:23:34;;;;;;;;;;;;;;;33.07;37.30;99438.34;5031542;28;19915;-77
2023/07/14 08:26:00;;;;;;;;;;;;;;;33.14;36.47;99436.72;5028959;28;20298;-79
2023/07/14 08:28:26;;;;;;;;;;;;;;;33.24;36.90;99437.47;5030402;28;20409;-78
2023/07/14 08:30:52;;;;;;;;;;;;;;;33.34;36.08;99432.44;5029522;28;20004;-78
2023/07/14 08:33:18;;;;;;;;;;;;;;;33.44;35.85;99433.97;5031242;28;19911;-76
2023/07/14 08:35:43;;;;;;;;;;;;;;;33.50;35.50;99437.34;5029880;28;19912;-77
2023/07/14 08:38:09;;;;;;;;;;;;;;;33.59;35.82;99438.09;5013230;28;20003;-78
2023/07/14 08:40:38;;;;;;;;;;;;;;;33.67;35.51;99438.03;5024133;28;19914;-78
2023/07/14 08:43:14;;;;;;;;;;;;;;;33.81;35.94;99443.22;5025605;28;19917;-76
2023/07/14 08:45:46;;;;;;;;;;;;;;;33.95;35.23;99434.75;5028166;28;20357;-77
2023/07/14 08:48:11;;;;;;;;;;;;;;;34.02;35.89;99424.88;5027958;28;19971;-77
2023/07/14 08:50:38;;;;;;;;;;;;;;;34.10;35.21;99434.94;5027182;28;19948;-78
2023/07/14 08:53:04;;;;;;;;;;;;;;;34.20;35.41;99430.22;5022693;28;20363;-77
2023/07/14 08:55:32;;;;;;;;;;;;;;;34.26;35.62;99439.81;5029144;28;19952;-77
2023/07/14 08:58:02;;;;;;;;;;;;;;;34.31;35.05;99431.38;5026943;28;20412;-76
2023/07/14 09:00:36;;;;;;;;;;;;;;;34.33;34.91;99426.38;5025247;28;19919;-77
2023/07/14 09:03:10;;;;;;;;;;;;;;;34.42;34.96;99430.63;5033453;28;19924;-76
2023/07/14 09:05:38;;;;;;;;;;;;;;;34.54;35.29;99429.06;5013959;28;19982;-77
2023/07/14 09:08:04;;;;;;;;;;;;;;;34.59;34.76;99426.09;5029702;28;19933;-77
2023/07/14 09:10:41;;;;;;;;;;;;;;;34.68;34.47;99419.38;5029790;28;19971;-76
2023/07/14 09:13:12;;;;;;;;;;;;;;;34.85;34.83;99425.81;5032959;28;19913;-77
2023/07/14 09:15:38;;;;;;;;;;;;;;;34.99;33.27;99423.56;5031782;28;19913;-77
2023/07/14 09:18:06;;;;;;;;;;;;;;;35.08;33.70;99426.19;5033986;28;19936;-77
2023/07/14 09:20:50;;;;;;;;;;;;;;;35.24;32.79;99416.09;5029927;28;19936;-76
2023/07/14 09:23:16;;;;;;;;;;;;;;;35.32;34.08;99413.25;5026027;28;19918;-77
2023/07/14 09:25:50;;;;;;;;;;;;;;;35.50;34.00;99418.47;5016413;28;20446;-75
2023/07/14 09:28:20;;;;;;;;;;;;;;;35.69;33.77;99412.38;5026527;28;20031;-76
2023/07/14 09:30:47;;;;;;;;;;;;;;;35.85;33.52;99414.06;4998598;28;19909;-76
2023/07/14 09:33:16;;;;;;;;;;;;;;;35.95;33.18;99416.31;5032089;28;19916;-77
2023/07/14 09:35:44;;;;;;;;;;;;;;;36.09;33.02;99412.38;5034059;28;20378;-77
2023/07/14 09:38:35;;;;;;;;;;;;;;;36.26;33.13;99421.09;5029715;28;20398;-76
2023/07/14 09:41:02;;;;;;;;;;;;;;;36.53;33.07;99415.94;5027691;28;19917;-76
2023/07/14 09:43:28;;;;;;;;;;;;;;;36.68;32.03;99406.91;5029189;28;19917;-76
2023/07/14 09:45:54;;;;;;;;;;;;;;;36.75;32.58;99409.03;5031762;28;19916;-77
2023/07/14 09:48:19;;;;;;;;;;;;;;;36.85;32.08;99414.81;5028401;28;19913;-77
2023/07/14 09:50:47;;;;;;;;;;;;;;;36.98;32.33;99407.25;5031527;28;20374;-77
2023/07/14 09:53:12;;;;;;;;;;;;;;;37.11;32.31;99400.47;5032999;28;19921;-76
2023/07/14 09:55:48;;;;;;;;;;;;;;;37.27;31.80;99399.69;5032830;28;19935;-78
2023/07/14 09:58:15;;;;;;;;;;;;;;;37.41;31.74;99400.81;5029621;28;20424;-75
2023/07/14 10:00:41;;;;;;;;;;;;;;;37.47;31.94;99398.56;5029724;28;19924;-77
2023/07/14 10:03:07;;;;;;;;;;;;;;;37.65;30.94;99396.19;5032886;28;19921;-76
2023/07/14 10:05:47;;;;;;;;;;;;;;;37.84;30.89;99390.69;5031629;28;19913;-76
2023/07/14 10:08:30;;;;;;;;;;;;;;;37.94;29.42;99392.88;5032539;28;19913;-77
2023/07/14 10:10:57;;;;;;;;;;;;;;;38.13;29.35;99390.09;5018511;28;20397;-76
2023/07/14 10:13:27;;;;;;;;;;;;;;;38.23;30.92;99376.91;5031924;28;20413;-77
2023/07/14 10:15:55;;;;;;;;;;;;;;;38.35;29.97;99387.75;5024145;28;19920;-76
2023/07/14 10:18:20;;;;;;;;;;;;;;;38.43;29.38;99386.72;5030160;28;19939;-76
2023/07/14 10:20:57;;;;;;;;;;;;;;;38.62;29.04;99383.91;5031777;28;20402;-77
2023/07/14 10:23:25;;;;;;;;;;;;;;;38.64;27.84;99381.56;5029027;28;19917;-75
2023/07/14 10:25:53;;;;;;;;;;;;;;;38.64;29.72;99387.09;5030684;28;19955;-77
2023/07/14 10:28:27;;;;;;;;;;;;;;;38.85;29.69;99383.09;5016119;28;20321;-76
2023/07/14 10:30:53;;;;;;;;;;;;;;;39.06;29.69;99370.44;5030692;28;20309;-76
2023/07/14 10:33:26;;;;;;;;;;;;;;;39.20;29.89;99374.56;5032163;28;19913;-77
2023/07/14 10:36:18;;;;;;;;;;;;;;;39.33;28.52;99370.41;5013159;28;20055;-75
2023/07/14 10:38:48;;;;;;;;;;;;;;;39.44;29.67;99365.84;5010743;28;19916;-77
2023/07/14 10:41:14;;;;;;;;;;;;;;;39.51;29.43;99373.44;5023958;28;19917;-77
2023/07/14 10:43:43;;;;;;;;;;;;;;;39.62;29.50;99372.41;5032708;28;19920;-77
2023/07/14 10:46:17;;;;;;;;;;;;;;;39.71;30.03;99363.81;5033924;28;19909;-76
2023/07/14 10:48:47;;;;;;;;;;;;;;;39.69;29.40;99372.50;5033804;28;20393;-77
2023/07/14 10:51:34;;;;;;;;;;;;;;;39.81;28.70;99359.59;5018219;28;19916;-76
2023/07/14 10:54:04;;;;;;;;;;;;;;;40.04;28.68;99363.03;4996660;28;20393;-76
2023/07/14 10:56:33;;;;;;;;;;;;;;;40.17;28.94;99369.91;5023346;28;19932;-77
2023/07/14 10:59:01;;;;;;;;;;;;;;;40.20;28.25;99360.03;5039005;28;19917;-77
2023/07/14 11:01:47;;;;;;;;;;;;;;;40.30;28.16;99353.81;5037920;28;20020;-76
2023/07/14 11:04:12;;;;;;;;;;;;;;;40.46;27.26;99356.34;5008301;28;20313;-75
2023/07/14 11:06:39;;;;;;;;;;;;;;;40.44;28.28;99358.69;5014027;28;19920;-76
2023/07/14 11:09:10;;;;;;;;;;;;;;;40.38;28.01;99361.03;5032999;28;19937;-77
2023/07/14 11:11:53;;;;;;;;;;;;;;;40.40;28.59;99357.88;5027874;28;19919;-76
2023/07/14 11:14:37;;;;;;;;;;;;;;;40.36;28.66;99355.06;5029300;28;19920;-78
2023/07/14 11:17:08;;;;;;;;;;;;;;;40.58;28.08;99344.97;5029446;28;19920;-77
2023/07/14 11:19:40;;;;;;;;;;;;;;;40.53;28.13;99343.34;5027305;28;19913;-78
2023/07/14 11:22:12;;;;;;;;;;;;;;;40.47;28.11;99344.09;5002936;28;19917;-77
2023/07/14 11:24:45;;;;;;;;;;;;;;;40.47;27.77;99349.63;5024185;28;19967;-77
2023/07/14 11:27:25;;;;;;;;;;;;;;;40.45;27.50;99344.47;5031163;28;19920;-77
2023/07/14 11:29:57;;;;;;;;;;;;;;;40.51;27.76;99331.88;5030574;28;19993;-77
2023/07/14 11:32:28;;;;;;;;;;;;;;;40.55;27.53;99320.84;5030006;28;19912;-77
2023/07/14 11:34:57;;;;;;;;;;;;;;;40.65;27.48;99322.88;5029286;28;19919;-77
2023/07/14 11:37:34;;;;;;;;;;;;;;;40.88;26.79;99319.91;5031402;28;20298;-77
2023/07/14 11:40:01;;;;;;;;;;;;;;;41.06;26.98;99317.25;5030430;28;19921;-78
2023/07/14 11:42:28;;;;;;;;;;;;;;;41.29;26.93;99323.31;5013054;28;19917;-77
2023/07/14 11:44:55;;;;;;;;;;;;;;;41.46;27.06;99328.13;5031046;28;19963;-77
2023/07/14 11:47:26;;;;;;;;;;;;;;;41.65;26.39;99326.25;5026520;28;19920;-77
2023/07/14 11:49:53;;;;;;;;;;;;;;;41.78;25.96;99319.97;5019254;28;20308;-77
2023/07/14 11:52:23;;;;;;;;;;;;;;;41.91;24.69;99322.34;5015774;28;19971;-76
2023/07/14 11:55:06;;;;;;;;;;;;;;;41.88;26.93;99319.19;4994607;28;20402;-77
2023/07/14 11:57:46;;;;;;;;;;;;;;;41.85;26.43;99324.72;5023783;28;19999;-78
2023/07/14 12:00:14;;;;;;;;;;;;;;;41.94;26.35;99319.59;5027587;28;19913;-77
2023/07/14 12:02:43;;;;;;;;;;;;;;;42.01;26.07;99313.25;5031272;28;19924;-76
2023/07/14 12:05:15;;;;;;;;;;;;;;;41.99;25.72;99310.88;5008751;28;19922;-77
2023/07/14 12:08:16;;;;;;;;;;;;;;;42.04;25.33;99318.03;5029683;28;20012;-77
2023/07/14 12:10:41;;;;;;;;;;;;;;;42.15;26.24;99305.75;4970093;28;19917;-76
2023/07/14 12:13:12;;;;;;;;;;;;;;;42.19;24.29;99297.44;4999473;28;19916;-77
2023/07/14 12:15:41;;;;;;;;;;;;;;;42.19;24.51;99300.22;5012194;28;19913;-77
2023/07/14 12:18:21;;;;;;;;;;;;;;;42.06;25.76;99294.25;5029096;28;19935;-78
2023/07/14 12:20:47;;;;;;;;;;;;;;;42.12;26.05;99289.13;5011699;28;20910;-77
2023/07/14 12:23:16;;;;;;;;;;;;;;;42.01;25.71;99294.63;5029074;28;20004;-77
2023/07/14 12:25:44;;;;;;;;;;;;;;;42.04;24.63;99290.31;5026218;28;19944;-78
2023/07/14 12:28:18;;;;;;;;;;;;;;;41.96;25.41;99281.16;5030522;28;19913;-77
2023/07/14 12:30:51;;;;;;;;;;;;;;;42.08;25.22;99293.88;5031700;28;19948;-77
2023/07/14 12:33:19;;;;;;;;;;;;;;;42.10;24.41;99285.94;5031875;28;19916;-76
2023/07/14 12:35:45;;;;;;;;;;;;;;;42.30;24.66;99289.09;5028271;28;20012;-75
2023/07/14 12:38:14;;;;;;;;;;;;;;;42.47;24.20;99294.69;5019819;28;20393;-77
2023/07/14 12:40:39;;;;;;;;;;;;;;;42.49;25.19;99291.53;5011874;28;19909;-78
2023/07/14 12:43:06;;;;;;;;;;;;;;;42.37;24.75;99287.16;5029967;28;19920;-78
2023/07/14 12:45:33;;;;;;;;;;;;;;;42.41;24.66;99289.94;5031577;28;19913;-77
2023/07/14 12:48:01;;;;;;;;;;;;;;;42.55;24.92;99297.47;5031369;28;19916;-77
2023/07/14 12:50:26;;;;;;;;;;;;;;;42.64;25.02;99279.19;5027246;28;19920;-77
2023/07/14 12:52:51;;;;;;;;;;;;;;;42.57;25.53;99286.75;5024741;28;19997;-78
2023/07/14 12:55:23;;;;;;;;;;;;;;;42.55;25.27;99267.72;5028117;28;20011;-77